sensor_id;sensor_type;location;lat;lon;timestamp;P1;durP1;ratioP1;P2;durP2;ratioP2
50104;SDS011;47690;39.202;-77.198;2022-10-16T00:01:12;2.63;;;2.20;;
50104;SDS011;47690;39.202;-77.198;2022-10-16T00:04:08;3.00;;;2.00;;
50104;SDS011;47690;39.202;-77.198;2022-10-16T00:06:42;2.30;;;2.10;;
50104;SDS011;47690;39.202;-77.198;2022-10-16T00:09:50;2.75;;;2.13;;
50104;SDS011;47690;39.202;-77.198;2022-10-16T00:12:27;1.92;;;1.83;;
50104;SDS011;47690;39.202;-77.198;2022-10-16T00:15:11;2.20;;;1.95;;
50104;SDS011;47690;39.202;-77.198;2022-10-16T00:17:52;2.10;;;1.90;;
50104;SDS011;47690;39.202;-77.198;2022-10-16T00:21:31;3.22;;;2.25;;
50104;SDS011;47690;39.202;-77.198;2022-10-16T00:24:36;1.98;;;1.77;;
50104;SDS011;47690;39.202;-77.198;2022-10-16T00:28:28;2.20;;;1.90;;
50104;SDS011;47690;39.202;-77.198;2022-10-16T00:31:49;3.03;;;2.10;;
50104;SDS011;47690;39.202;-77.198;2022-10-16T00:34:20;3.05;;;2.30;;
50104;SDS011;47690;39.202;-77.198;2022-10-16T00:37:04;2.17;;;1.98;;
50104;SDS011;47690;39.202;-77.198;2022-10-16T00:39:47;4.17;;;2.23;;
50104;SDS011;47690;39.202;-77.198;2022-10-16T00:42:39;2.10;;;1.90;;
50104;SDS011;47690;39.202;-77.198;2022-10-16T00:45:18;3.95;;;2.40;;
50104;SDS011;47690;39.202;-77.198;2022-10-16T00:47:49;2.88;;;2.20;;
50104;SDS011;47690;39.202;-77.198;2022-10-16T00:50:31;2.40;;;2.20;;
50104;SDS011;47690;39.202;-77.198;2022-10-16T00:53:10;2.97;;;2.20;;
50104;SDS011;47690;39.202;-77.198;2022-10-16T00:55:44;4.15;;;2.33;;
50104;SDS011;47690;39.202;-77.198;2022-10-16T00:58:17;2.40;;;2.20;;
50104;SDS011;47690;39.202;-77.198;2022-10-16T01:00:54;3.22;;;2.05;;
50104;SDS011;47690;39.202;-77.198;2022-10-16T01:03:33;3.10;;;2.40;;
50104;SDS011;47690;39.202;-77.198;2022-10-16T01:09:18;2.67;;;2.22;;
50104;SDS011;47690;39.202;-77.198;2022-10-16T01:12:23;2.30;;;2.00;;
50104;SDS011;47690;39.202;-77.198;2022-10-16T01:15:30;2.55;;;2.10;;
50104;SDS011;47690;39.202;-77.198;2022-10-16T01:18:19;2.40;;;2.20;;
50104;SDS011;47690;39.202;-77.198;2022-10-16T01:21:06;2.70;;;2.35;;
50104;SDS011;47690;39.202;-77.198;2022-10-16T01:24:17;2.83;;;2.05;;
50104;SDS011;47690;39.202;-77.198;2022-10-16T01:27:15;2.85;;;2.25;;
50104;SDS011;47690;39.202;-77.198;2022-10-16T01:30:26;2.20;;;2.00;;
50104;SDS011;47690;39.202;-77.198;2022-10-16T01:33:06;3.33;;;2.30;;
50104;SDS011;47690;39.202;-77.198;2022-10-16T01:35:47;2.75;;;1.90;;
50104;SDS011;47690;39.202;-77.198;2022-10-16T01:38:29;2.40;;;2.20;;
50104;SDS011;47690;39.202;-77.198;2022-10-16T01:41:07;2.47;;;2.10;;
50104;SDS011;47690;39.202;-77.198;2022-10-16T01:43:56;2.38;;;2.17;;
50104;SDS011;47690;39.202;-77.198;2022-10-16T01:46:42;2.20;;;1.95;;
50104;SDS011;47690;39.202;-77.198;2022-10-16T01:49:18;2.28;;;2.03;;
50104;SDS011;47690;39.202;-77.198;2022-10-16T01:52:15;3.50;;;2.22;;
50104;SDS011;47690;39.202;-77.198;2022-10-16T01:54:56;2.83;;;2.30;;
50104;SDS011;47690;39.202;-77.198;2022-10-16T01:57:53;2.60;;;2.00;;
50104;SDS011;47690;39.202;-77.198;2022-10-16T02:00:31;2.70;;;2.25;;
50104;SDS011;47690;39.202;-77.198;2022-10-16T02:03:29;3.33;;;2.05;;
50104;SDS011;47690;39.202;-77.198;2022-10-16T02:06:19;2.50;;;2.10;;
50104;SDS011;47690;39.202;-77.198;2022-10-16T02:09:03;2.40;;;2.10;;
50104;SDS011;47690;39.202;-77.198;2022-10-16T02:12:03;2.30;;;2.10;;
50104;SDS011;47690;39.202;-77.198;2022-10-16T02:15:22;2.92;;;2.00;;
50104;SDS011;47690;39.202;-77.198;2022-10-16T02:18:03;2.38;;;2.03;;
50104;SDS011;47690;39.202;-77.198;2022-10-16T02:21:16;2.40;;;2.10;;
50104;SDS011;47690;39.202;-77.198;2022-10-16T02:24:15;2.63;;;2.42;;
50104;SDS011;47690;39.202;-77.198;2022-10-16T02:27:32;3.50;;;2.50;;
50104;SDS011;47690;39.202;-77.198;2022-10-16T02:30:28;4.35;;;2.88;;
50104;SDS011;47690;39.202;-77.198;2022-10-16T02:33:19;2.85;;;2.40;;
50104;SDS011;47690;39.202;-77.198;2022-10-16T02:36:00;4.35;;;2.53;;
50104;SDS011;47690;39.202;-77.198;2022-10-16T02:38:59;3.30;;;2.67;;
50104;SDS011;47690;39.202;-77.198;2022-10-16T02:41:59;2.88;;;2.40;;
50104;SDS011;47690;39.202;-77.198;2022-10-16T02:44:55;2.63;;;2.28;;
50104;SDS011;47690;39.202;-77.198;2022-10-16T02:47:34;4.20;;;2.47;;
50104;SDS011;47690;39.202;-77.198;2022-10-16T02:50:30;2.95;;;2.35;;
50104;SDS011;47690;39.202;-77.198;2022-10-16T02:53:57;2.25;;;2.05;;
50104;SDS011;47690;39.202;-77.198;2022-10-16T02:56:31;3.60;;;2.55;;
50104;SDS011;47690;39.202;-77.198;2022-10-16T02:59:05;3.75;;;2.25;;
50104;SDS011;47690;39.202;-77.198;2022-10-16T03:01:41;2.40;;;2.00;;
50104;SDS011;47690;39.202;-77.198;2022-10-16T03:04:11;4.82;;;2.30;;
50104;SDS011;47690;39.202;-77.198;2022-10-16T03:09:46;2.20;;;2.00;;
50104;SDS011;47690;39.202;-77.198;2022-10-16T03:12:18;2.92;;;2.30;;
50104;SDS011;47690;39.202;-77.198;2022-10-16T03:14:51;2.33;;;2.13;;
50104;SDS011;47690;39.202;-77.198;2022-10-16T03:17:47;2.42;;;2.22;;
50104;SDS011;47690;39.202;-77.198;2022-10-16T03:20:22;4.18;;;2.20;;
50104;SDS011;47690;39.202;-77.198;2022-10-16T03:26:19;3.45;;;2.38;;
50104;SDS011;47690;39.202;-77.198;2022-10-16T03:29:33;2.58;;;2.33;;
50104;SDS011;47690;39.202;-77.198;2022-10-16T03:32:25;2.35;;;2.15;;
50104;SDS011;47690;39.202;-77.198;2022-10-16T03:35:19;2.30;;;2.10;;
50104;SDS011;47690;39.202;-77.198;2022-10-16T03:38:14;2.40;;;2.15;;
50104;SDS011;47690;39.202;-77.198;2022-10-16T03:40:51;2.78;;;2.10;;
50104;SDS011;47690;39.202;-77.198;2022-10-16T03:43:42;2.13;;;1.92;;
50104;SDS011;47690;39.202;-77.198;2022-10-16T03:46:14;4.67;;;2.03;;
50104;SDS011;47690;39.202;-77.198;2022-10-16T03:49:17;2.40;;;2.08;;
50104;SDS011;47690;39.202;-77.198;2022-10-16T03:51:56;2.15;;;1.92;;
50104;SDS011;47690;39.202;-77.198;2022-10-16T03:54:46;2.75;;;2.10;;
50104;SDS011;47690;39.202;-77.198;2022-10-16T03:57:29;3.08;;;2.10;;
50104;SDS011;47690;39.202;-77.198;2022-10-16T04:00:40;3.45;;;2.10;;
50104;SDS011;47690;39.202;-77.198;2022-10-16T04:03:19;2.80;;;2.35;;
50104;SDS011;47690;39.202;-77.198;2022-10-16T04:06:41;2.50;;;2.30;;
50104;SDS011;47690;39.202;-77.198;2022-10-16T04:09:21;2.50;;;2.08;;
50104;SDS011;47690;39.202;-77.198;2022-10-16T04:12:07;2.53;;;2.10;;
50104;SDS011;47690;39.202;-77.198;2022-10-16T04:15:22;2.30;;;2.10;;
50104;SDS011;47690;39.202;-77.198;2022-10-16T04:17:51;2.25;;;2.00;;
50104;SDS011;47690;39.202;-77.198;2022-10-16T04:20:54;4.78;;;2.45;;
50104;SDS011;47690;39.202;-77.198;2022-10-16T04:24:04;2.28;;;2.08;;
50104;SDS011;47690;39.202;-77.198;2022-10-16T04:27:02;2.40;;;2.20;;
50104;SDS011;47690;39.202;-77.198;2022-10-16T04:29:40;2.67;;;2.20;;
50104;SDS011;47690;39.202;-77.198;2022-10-16T04:32:14;2.80;;;2.15;;
50104;SDS011;47690;39.202;-77.198;2022-10-16T04:35:00;2.35;;;2.00;;
50104;SDS011;47690;39.202;-77.198;2022-10-16T04:37:41;2.40;;;2.00;;
50104;SDS011;47690;39.202;-77.198;2022-10-16T04:40:13;2.33;;;2.13;;
50104;SDS011;47690;39.202;-77.198;2022-10-16T04:42:43;2.45;;;2.20;;
50104;SDS011;47690;39.202;-77.198;2022-10-16T04:45:17;2.10;;;1.90;;
50104;SDS011;47690;39.202;-77.198;2022-10-16T04:47:47;3.58;;;2.17;;
50104;SDS011;47690;39.202;-77.198;2022-10-16T04:50:19;2.83;;;2.42;;
50104;SDS011;47690;39.202;-77.198;2022-10-16T04:53:05;2.45;;;2.13;;
50104;SDS011;47690;39.202;-77.198;2022-10-16T04:55:42;2.35;;;2.15;;
50104;SDS011;47690;39.202;-77.198;2022-10-16T04:58:17;2.78;;;2.28;;
50104;SDS011;47690;39.202;-77.198;2022-10-16T05:00:54;2.58;;;2.38;;
50104;SDS011;47690;39.202;-77.198;2022-10-16T05:03:25;2.70;;;2.33;;
50104;SDS011;47690;39.202;-77.198;2022-10-16T05:05:54;2.83;;;2.22;;
50104;SDS011;47690;39.202;-77.198;2022-10-16T05:08:26;2.50;;;2.28;;
50104;SDS011;47690;39.202;-77.198;2022-10-16T05:11:04;2.35;;;2.10;;
50104;SDS011;47690;39.202;-77.198;2022-10-16T05:13:39;2.33;;;2.13;;
50104;SDS011;47690;39.202;-77.198;2022-10-16T05:16:13;2.70;;;2.33;;
50104;SDS011;47690;39.202;-77.198;2022-10-16T05:18:43;3.42;;;2.50;;
50104;SDS011;47690;39.202;-77.198;2022-10-16T05:21:19;3.00;;;2.25;;
50104;SDS011;47690;39.202;-77.198;2022-10-16T05:23:49;2.95;;;2.47;;
50104;SDS011;47690;39.202;-77.198;2022-10-16T05:26:21;3.53;;;2.60;;
50104;SDS011;47690;39.202;-77.198;2022-10-16T05:28:51;2.70;;;2.22;;
50104;SDS011;47690;39.202;-77.198;2022-10-16T05:31:21;2.65;;;2.20;;
50104;SDS011;47690;39.202;-77.198;2022-10-16T05:33:58;3.25;;;2.47;;
50104;SDS011;47690;39.202;-77.198;2022-10-16T05:36:53;2.92;;;2.50;;
50104;SDS011;47690;39.202;-77.198;2022-10-16T05:39:23;2.53;;;2.30;;
50104;SDS011;47690;39.202;-77.198;2022-10-16T05:41:57;3.30;;;2.33;;
50104;SDS011;47690;39.202;-77.198;2022-10-16T05:44:27;2.45;;;2.22;;
50104;SDS011;47690;39.202;-77.198;2022-10-16T05:46:58;2.42;;;2.08;;
50104;SDS011;47690;39.202;-77.198;2022-10-16T05:49:34;2.38;;;2.17;;
50104;SDS011;47690;39.202;-77.198;2022-10-16T05:52:10;3.60;;;2.38;;
50104;SDS011;47690;39.202;-77.198;2022-10-16T05:54:40;2.65;;;2.20;;
50104;SDS011;47690;39.202;-77.198;2022-10-16T05:57:13;2.53;;;2.05;;
50104;SDS011;47690;39.202;-77.198;2022-10-16T06:02:18;3.00;;;2.30;;
50104;SDS011;47690;39.202;-77.198;2022-10-16T06:04:51;2.97;;;2.20;;
50104;SDS011;47690;39.202;-77.198;2022-10-16T06:07:33;2.42;;;2.22;;
50104;SDS011;47690;39.202;-77.198;2022-10-16T06:10:15;2.25;;;2.05;;
50104;SDS011;47690;39.202;-77.198;2022-10-16T06:12:47;2.55;;;2.22;;
50104;SDS011;47690;39.202;-77.198;2022-10-16T06:15:22;2.67;;;2.40;;
50104;SDS011;47690;39.202;-77.198;2022-10-16T06:17:54;2.45;;;2.03;;
50104;SDS011;47690;39.202;-77.198;2022-10-16T06:20:29;2.42;;;2.22;;
50104;SDS011;47690;39.202;-77.198;2022-10-16T06:23:09;2.47;;;2.25;;
50104;SDS011;47690;39.202;-77.198;2022-10-16T06:25:40;2.50;;;2.10;;
50104;SDS011;47690;39.202;-77.198;2022-10-16T06:28:10;2.42;;;2.22;;
50104;SDS011;47690;39.202;-77.198;2022-10-16T06:30:44;2.22;;;2.03;;
50104;SDS011;47690;39.202;-77.198;2022-10-16T06:33:14;3.22;;;2.28;;
50104;SDS011;47690;39.202;-77.198;2022-10-16T06:35:46;2.45;;;2.13;;
50104;SDS011;47690;39.202;-77.198;2022-10-16T06:38:15;2.78;;;2.13;;
50104;SDS011;47690;39.202;-77.198;2022-10-16T06:49:27;2.95;;;2.28;;
50104;SDS011;47690;39.202;-77.198;2022-10-16T06:53:33;2.15;;;1.92;;
50104;SDS011;47690;39.202;-77.198;2022-10-16T06:58:39;2.45;;;2.03;;
50104;SDS011;47690;39.202;-77.198;2022-10-16T07:08:19;1.73;;;1.63;;
50104;SDS011;47690;39.202;-77.198;2022-10-16T07:12:55;1.77;;;1.67;;
50104;SDS011;47690;39.202;-77.198;2022-10-16T07:22:28;2.33;;;1.90;;
50104;SDS011;47690;39.202;-77.198;2022-10-16T07:27:22;2.00;;;1.80;;
50104;SDS011;47690;39.202;-77.198;2022-10-16T07:41:12;2.50;;;2.30;;
50104;SDS011;47690;39.202;-77.198;2022-10-16T07:43:55;2.58;;;2.10;;
50104;SDS011;47690;39.202;-77.198;2022-10-16T07:53:39;2.35;;;2.00;;
50104;SDS011;47690;39.202;-77.198;2022-10-16T07:58:34;2.47;;;2.10;;
50104;SDS011;47690;39.202;-77.198;2022-10-16T08:06:55;2.30;;;2.00;;
50104;SDS011;47690;39.202;-77.198;2022-10-16T08:25:13;2.10;;;1.90;;
50104;SDS011;47690;39.202;-77.198;2022-10-16T08:28:29;1.80;;;1.70;;
50104;SDS011;47690;39.202;-77.198;2022-10-16T08:32:32;2.28;;;2.08;;
50104;SDS011;47690;39.202;-77.198;2022-10-16T08:35:52;2.85;;;2.17;;
50104;SDS011;47690;39.202;-77.198;2022-10-16T08:44:02;1.90;;;1.80;;
50104;SDS011;47690;39.202;-77.198;2022-10-16T08:47:52;2.10;;;1.90;;
50104;SDS011;47690;39.202;-77.198;2022-10-16T08:52:30;1.73;;;1.63;;
50104;SDS011;47690;39.202;-77.198;2022-10-16T08:59:35;2.50;;;2.10;;
50104;SDS011;47690;39.202;-77.198;2022-10-16T09:06:37;2.22;;;2.03;;
50104;SDS011;47690;39.202;-77.198;2022-10-16T09:10:59;2.00;;;1.80;;
50104;SDS011;47690;39.202;-77.198;2022-10-16T09:23:15;2.17;;;1.98;;
50104;SDS011;47690;39.202;-77.198;2022-10-16T09:26:27;2.58;;;2.28;;
50104;SDS011;47690;39.202;-77.198;2022-10-16T09:30:46;2.88;;;2.03;;
50104;SDS011;47690;39.202;-77.198;2022-10-16T09:33:29;3.13;;;2.10;;
50104;SDS011;47690;39.202;-77.198;2022-10-16T09:36:50;2.40;;;2.20;;
50104;SDS011;47690;39.202;-77.198;2022-10-16T09:40:12;4.07;;;2.42;;
50104;SDS011;47690;39.202;-77.198;2022-10-16T09:50:28;3.55;;;2.30;;
50104;SDS011;47690;39.202;-77.198;2022-10-16T09:53:15;2.38;;;2.00;;
50104;SDS011;47690;39.202;-77.198;2022-10-16T09:55:52;2.63;;;2.22;;
50104;SDS011;47690;39.202;-77.198;2022-10-16T09:59:16;2.17;;;1.98;;
50104;SDS011;47690;39.202;-77.198;2022-10-16T10:06:51;2.10;;;1.90;;
50104;SDS011;47690;39.202;-77.198;2022-10-16T10:09:50;2.20;;;1.95;;
50104;SDS011;47690;39.202;-77.198;2022-10-16T10:13:38;2.25;;;2.05;;
50104;SDS011;47690;39.202;-77.198;2022-10-16T10:17:47;2.17;;;1.98;;
50104;SDS011;47690;39.202;-77.198;2022-10-16T10:21:12;2.08;;;1.88;;
50104;SDS011;47690;39.202;-77.198;2022-10-16T10:25:22;2.22;;;1.98;;
50104;SDS011;47690;39.202;-77.198;2022-10-16T10:30:15;1.70;;;1.60;;
50104;SDS011;47690;39.202;-77.198;2022-10-16T10:34:35;1.90;;;1.80;;
50104;SDS011;47690;39.202;-77.198;2022-10-16T10:45:49;2.10;;;1.90;;
50104;SDS011;47690;39.202;-77.198;2022-10-16T11:08:19;2.38;;;1.80;;
50104;SDS011;47690;39.202;-77.198;2022-10-16T11:11:55;2.33;;;2.00;;
50104;SDS011;47690;39.202;-77.198;2022-10-16T11:16:17;2.10;;;1.90;;
50104;SDS011;47690;39.202;-77.198;2022-10-16T11:20:24;2.35;;;2.00;;
50104;SDS011;47690;39.202;-77.198;2022-10-16T11:32:06;2.20;;;2.00;;
50104;SDS011;47690;39.202;-77.198;2022-10-16T11:36:03;1.85;;;1.75;;
50104;SDS011;47690;39.202;-77.198;2022-10-16T11:46:27;2.00;;;1.85;;
50104;SDS011;47690;39.202;-77.198;2022-10-16T11:50:17;1.95;;;1.77;;
50104;SDS011;47690;39.202;-77.198;2022-10-16T11:53:38;2.58;;;1.77;;
50104;SDS011;47690;39.202;-77.198;2022-10-16T11:58:51;2.00;;;1.63;;
50104;SDS011;47690;39.202;-77.198;2022-10-16T12:11:32;2.15;;;1.95;;
50104;SDS011;47690;39.202;-77.198;2022-10-16T12:20:29;2.05;;;1.90;;
50104;SDS011;47690;39.202;-77.198;2022-10-16T12:23:31;3.05;;;2.20;;
50104;SDS011;47690;39.202;-77.198;2022-10-16T12:26:29;2.38;;;1.90;;
50104;SDS011;47690;39.202;-77.198;2022-10-16T12:32:27;2.13;;;1.90;;
50104;SDS011;47690;39.202;-77.198;2022-10-16T12:35:19;2.20;;;1.98;;
50104;SDS011;47690;39.202;-77.198;2022-10-16T12:38:16;1.88;;;1.60;;
50104;SDS011;47690;39.202;-77.198;2022-10-16T12:41:32;1.90;;;1.70;;
50104;SDS011;47690;39.202;-77.198;2022-10-16T12:44:32;2.35;;;1.70;;
50104;SDS011;47690;39.202;-77.198;2022-10-16T12:48:30;2.65;;;1.90;;
50104;SDS011;47690;39.202;-77.198;2022-10-16T12:51:34;2.38;;;1.67;;
50104;SDS011;47690;39.202;-77.198;2022-10-16T12:54:34;1.80;;;1.65;;
50104;SDS011;47690;39.202;-77.198;2022-10-16T13:03:54;2.42;;;2.00;;
50104;SDS011;47690;39.202;-77.198;2022-10-16T13:22:23;2.10;;;1.90;;
50104;SDS011;47690;39.202;-77.198;2022-10-16T13:30:56;1.90;;;1.80;;
50104;SDS011;47690;39.202;-77.198;2022-10-16T13:36:23;2.10;;;1.90;;
50104;SDS011;47690;39.202;-77.198;2022-10-16T13:39:23;2.20;;;2.00;;
50104;SDS011;47690;39.202;-77.198;2022-10-16T13:42:04;1.92;;;1.73;;
50104;SDS011;47690;39.202;-77.198;2022-10-16T13:45:27;2.30;;;1.73;;
50104;SDS011;47690;39.202;-77.198;2022-10-16T13:55:20;2.03;;;1.77;;
50104;SDS011;47690;39.202;-77.198;2022-10-16T14:04:20;1.77;;;1.67;;
50104;SDS011;47690;39.202;-77.198;2022-10-16T14:07:01;2.47;;;1.88;;
50104;SDS011;47690;39.202;-77.198;2022-10-16T14:10:18;2.97;;;1.60;;
50104;SDS011;47690;39.202;-77.198;2022-10-16T14:13:56;2.70;;;1.98;;
50104;SDS011;47690;39.202;-77.198;2022-10-16T14:17:13;1.67;;;1.58;;
50104;SDS011;47690;39.202;-77.198;2022-10-16T14:20:14;2.10;;;1.83;;
50104;SDS011;47690;39.202;-77.198;2022-10-16T14:22:59;2.33;;;1.73;;
50104;SDS011;47690;39.202;-77.198;2022-10-16T14:29:01;2.10;;;1.42;;
50104;SDS011;47690;39.202;-77.198;2022-10-16T14:32:35;1.95;;;1.75;;
50104;SDS011;47690;39.202;-77.198;2022-10-16T14:39:27;2.17;;;1.95;;
50104;SDS011;47690;39.202;-77.198;2022-10-16T14:42:25;2.55;;;1.92;;
50104;SDS011;47690;39.202;-77.198;2022-10-16T14:45:59;2.05;;;1.80;;
50104;SDS011;47690;39.202;-77.198;2022-10-16T14:49:06;2.20;;;1.90;;
50104;SDS011;47690;39.202;-77.198;2022-10-16T14:52:17;2.50;;;1.98;;
50104;SDS011;47690;39.202;-77.198;2022-10-16T14:55:00;1.90;;;1.70;;
50104;SDS011;47690;39.202;-77.198;2022-10-16T14:57:46;2.37;;;1.93;;
50104;SDS011;47690;39.202;-77.198;2022-10-16T15:00:51;2.10;;;1.90;;
50104;SDS011;47690;39.202;-77.198;2022-10-16T15:07:29;1.98;;;1.73;;
50104;SDS011;47690;39.202;-77.198;2022-10-16T15:10:17;1.85;;;1.65;;
50104;SDS011;47690;39.202;-77.198;2022-10-16T15:19:15;1.50;;;1.40;;
50104;SDS011;47690;39.202;-77.198;2022-10-16T15:23:12;1.95;;;1.67;;
50104;SDS011;47690;39.202;-77.198;2022-10-16T15:26:28;1.80;;;1.70;;
50104;SDS011;47690;39.202;-77.198;2022-10-16T15:36:35;1.92;;;1.60;;
50104;SDS011;47690;39.202;-77.198;2022-10-16T15:41:38;2.30;;;1.90;;
50104;SDS011;47690;39.202;-77.198;2022-10-16T16:03:53;2.00;;;1.83;;
50104;SDS011;47690;39.202;-77.198;2022-10-16T16:12:08;2.20;;;1.60;;
50104;SDS011;47690;39.202;-77.198;2022-10-16T16:18:54;2.63;;;1.80;;
50104;SDS011;47690;39.202;-77.198;2022-10-16T16:23:32;2.38;;;2.00;;
50104;SDS011;47690;39.202;-77.198;2022-10-16T16:27:48;3.28;;;2.10;;
50104;SDS011;47690;39.202;-77.198;2022-10-16T16:31:59;2.30;;;1.90;;
50104;SDS011;47690;39.202;-77.198;2022-10-16T17:10:45;1.80;;;1.67;;
50104;SDS011;47690;39.202;-77.198;2022-10-16T17:13:58;2.05;;;1.80;;
50104;SDS011;47690;39.202;-77.198;2022-10-16T17:17:42;2.15;;;1.85;;
50104;SDS011;47690;39.202;-77.198;2022-10-16T17:21:43;2.15;;;1.95;;
50104;SDS011;47690;39.202;-77.198;2022-10-16T17:26:50;3.38;;;1.90;;
50104;SDS011;47690;39.202;-77.198;2022-10-16T17:30:10;2.25;;;2.00;;
50104;SDS011;47690;39.202;-77.198;2022-10-16T17:35:17;1.95;;;1.75;;
50104;SDS011;47690;39.202;-77.198;2022-10-16T17:39:23;3.05;;;2.03;;
50104;SDS011;47690;39.202;-77.198;2022-10-16T17:49:04;3.20;;;2.05;;
50104;SDS011;47690;39.202;-77.198;2022-10-16T17:54:24;6.10;;;2.22;;
50104;SDS011;47690;39.202;-77.198;2022-10-16T17:57:52;2.83;;;2.05;;
50104;SDS011;47690;39.202;-77.198;2022-10-16T18:00:43;2.70;;;2.10;;
50104;SDS011;47690;39.202;-77.198;2022-10-16T18:03:22;3.55;;;2.30;;
50104;SDS011;47690;39.202;-77.198;2022-10-16T18:06:04;2.55;;;2.20;;
50104;SDS011;47690;39.202;-77.198;2022-10-16T18:09:58;3.20;;;2.30;;
50104;SDS011;47690;39.202;-77.198;2022-10-16T18:31:29;3.38;;;2.10;;
50104;SDS011;47690;39.202;-77.198;2022-10-16T18:35:26;2.92;;;1.90;;
50104;SDS011;47690;39.202;-77.198;2022-10-16T18:38:06;2.60;;;2.00;;
50104;SDS011;47690;39.202;-77.198;2022-10-16T18:46:30;3.90;;;2.13;;
50104;SDS011;47690;39.202;-77.198;2022-10-16T18:50:31;2.50;;;2.00;;
50104;SDS011;47690;39.202;-77.198;2022-10-16T18:53:52;2.20;;;1.90;;
50104;SDS011;47690;39.202;-77.198;2022-10-16T18:57:28;1.95;;;1.80;;
50104;SDS011;47690;39.202;-77.198;2022-10-16T19:00:08;3.78;;;2.30;;
50104;SDS011;47690;39.202;-77.198;2022-10-16T19:02:55;2.63;;;2.00;;
50104;SDS011;47690;39.202;-77.198;2022-10-16T19:07:04;3.00;;;2.10;;
50104;SDS011;47690;39.202;-77.198;2022-10-16T19:11:02;1.90;;;1.80;;
50104;SDS011;47690;39.202;-77.198;2022-10-16T19:17:52;3.13;;;2.30;;
50104;SDS011;47690;39.202;-77.198;2022-10-16T19:21:06;3.00;;;2.10;;
50104;SDS011;47690;39.202;-77.198;2022-10-16T19:25:07;2.58;;;1.92;;
50104;SDS011;47690;39.202;-77.198;2022-10-16T19:28:45;2.05;;;1.85;;
50104;SDS011;47690;39.202;-77.198;2022-10-16T19:33:35;3.25;;;1.85;;
50104;SDS011;47690;39.202;-77.198;2022-10-16T19:37:12;2.53;;;1.90;;
50104;SDS011;47690;39.202;-77.198;2022-10-16T19:40:30;3.33;;;2.10;;
50104;SDS011;47690;39.202;-77.198;2022-10-16T19:44:11;2.28;;;2.00;;
50104;SDS011;47690;39.202;-77.198;2022-10-16T19:47:49;2.72;;;2.15;;
50104;SDS011;47690;39.202;-77.198;2022-10-16T19:57:05;4.00;;;2.17;;
50104;SDS011;47690;39.202;-77.198;2022-10-16T20:00:28;2.55;;;1.98;;
50104;SDS011;47690;39.202;-77.198;2022-10-16T20:03:22;2.63;;;2.15;;
50104;SDS011;47690;39.202;-77.198;2022-10-16T20:07:32;3.28;;;2.03;;
50104;SDS011;47690;39.202;-77.198;2022-10-16T20:10:36;2.22;;;1.85;;
50104;SDS011;47690;39.202;-77.198;2022-10-16T20:22:55;2.60;;;2.20;;
50104;SDS011;47690;39.202;-77.198;2022-10-16T20:27:08;2.53;;;2.17;;
50104;SDS011;47690;39.202;-77.198;2022-10-16T20:32:20;2.40;;;2.20;;
50104;SDS011;47690;39.202;-77.198;2022-10-16T20:37:49;2.83;;;2.20;;
50104;SDS011;47690;39.202;-77.198;2022-10-16T20:41:52;2.28;;;1.90;;
50104;SDS011;47690;39.202;-77.198;2022-10-16T20:46:05;2.35;;;1.90;;
50104;SDS011;47690;39.202;-77.198;2022-10-16T21:06:18;2.55;;;2.00;;
50104;SDS011;47690;39.202;-77.198;2022-10-16T21:15:21;3.00;;;2.10;;
50104;SDS011;47690;39.202;-77.198;2022-10-16T21:18:44;4.68;;;2.47;;
50104;SDS011;47690;39.202;-77.198;2022-10-16T21:22:02;3.17;;;2.47;;
50104;SDS011;47690;39.202;-77.198;2022-10-16T21:32:30;3.58;;;2.63;;
50104;SDS011;47690;39.202;-77.198;2022-10-16T21:40:28;3.78;;;2.60;;
50104;SDS011;47690;39.202;-77.198;2022-10-16T21:57:48;2.72;;;2.10;;
50104;SDS011;47690;39.202;-77.198;2022-10-16T22:00:47;2.88;;;2.30;;
50104;SDS011;47690;39.202;-77.198;2022-10-16T22:03:38;3.90;;;2.35;;
50104;SDS011;47690;39.202;-77.198;2022-10-16T22:06:19;2.17;;;1.98;;
50104;SDS011;47690;39.202;-77.198;2022-10-16T22:10:18;3.08;;;2.40;;
50104;SDS011;47690;39.202;-77.198;2022-10-16T22:14:32;2.92;;;2.08;;
50104;SDS011;47690;39.202;-77.198;2022-10-16T22:18:55;2.53;;;2.00;;
50104;SDS011;47690;39.202;-77.198;2022-10-16T22:22:21;2.92;;;2.17;;
50104;SDS011;47690;39.202;-77.198;2022-10-16T22:25:19;2.88;;;2.22;;
50104;SDS011;47690;39.202;-77.198;2022-10-16T22:35:54;3.05;;;2.28;;
50104;SDS011;47690;39.202;-77.198;2022-10-16T22:44:41;4.00;;;2.08;;
50104;SDS011;47690;39.202;-77.198;2022-10-16T22:47:11;2.85;;;2.20;;
50104;SDS011;47690;39.202;-77.198;2022-10-16T22:49:41;4.60;;;2.60;;
50104;SDS011;47690;39.202;-77.198;2022-10-16T22:52:11;3.55;;;2.80;;
50104;SDS011;47690;39.202;-77.198;2022-10-16T22:54:46;3.40;;;2.65;;
50104;SDS011;47690;39.202;-77.198;2022-10-16T22:57:19;3.70;;;2.63;;
50104;SDS011;47690;39.202;-77.198;2022-10-16T22:59:52;4.22;;;2.50;;
50104;SDS011;47690;39.202;-77.198;2022-10-16T23:03:01;4.07;;;2.50;;
50104;SDS011;47690;39.202;-77.198;2022-10-16T23:05:39;3.25;;;2.38;;
50104;SDS011;47690;39.202;-77.198;2022-10-16T23:08:25;3.25;;;2.25;;
50104;SDS011;47690;39.202;-77.198;2022-10-16T23:11:46;3.33;;;2.30;;
50104;SDS011;47690;39.202;-77.198;2022-10-16T23:14:44;2.70;;;2.33;;
50104;SDS011;47690;39.202;-77.198;2022-10-16T23:17:42;3.53;;;2.45;;
50104;SDS011;47690;39.202;-77.198;2022-10-16T23:20:16;4.13;;;2.55;;
50104;SDS011;47690;39.202;-77.198;2022-10-16T23:22:53;3.22;;;2.42;;
50104;SDS011;47690;39.202;-77.198;2022-10-16T23:25:30;2.90;;;2.47;;
50104;SDS011;47690;39.202;-77.198;2022-10-16T23:28:28;8.40;;;2.97;;
50104;SDS011;47690;39.202;-77.198;2022-10-16T23:31:15;3.35;;;2.50;;
50104;SDS011;47690;39.202;-77.198;2022-10-16T23:33:59;4.43;;;2.40;;
50104;SDS011;47690;39.202;-77.198;2022-10-16T23:37:25;3.28;;;2.40;;
50104;SDS011;47690;39.202;-77.198;2022-10-16T23:40:26;3.25;;;2.55;;
50104;SDS011;47690;39.202;-77.198;2022-10-16T23:43:04;3.38;;;2.40;;
50104;SDS011;47690;39.202;-77.198;2022-10-16T23:45:46;4.40;;;2.75;;
50104;SDS011;47690;39.202;-77.198;2022-10-16T23:49:16;4.32;;;2.47;;
50104;SDS011;47690;39.202;-77.198;2022-10-16T23:52:27;3.55;;;2.60;;
50104;SDS011;47690;39.202;-77.198;2022-10-16T23:55:22;3.60;;;2.63;;
